sensor_id;sensor_type;location;lat;lon;timestamp;P1;durP1;ratioP1;P2;durP2;ratioP2
21979;SDS011;11154;48.558;9.234;2023-09-12T00:00:05;10.43;;;5.50;;
21979;SDS011;11154;48.558;9.234;2023-09-12T00:02:07;11.88;;;6.15;;
21979;SDS011;11154;48.558;9.234;2023-09-12T00:04:11;13.60;;;6.38;;
21979;SDS011;11154;48.558;9.234;2023-09-12T00:06:12;11.30;;;6.60;;
21979;SDS011;11154;48.558;9.234;2023-09-12T00:08:14;12.48;;;5.80;;
21979;SDS011;11154;48.558;9.234;2023-09-12T00:10:16;8.20;;;5.35;;
21979;SDS011;11154;48.558;9.234;2023-09-12T00:12:16;13.00;;;5.95;;
21979;SDS011;11154;48.558;9.234;2023-09-12T00:14:18;13.05;;;6.88;;
21979;SDS011;11154;48.558;9.234;2023-09-12T00:16:20;13.32;;;5.88;;
21979;SDS011;11154;48.558;9.234;2023-09-12T00:18:21;10.32;;;5.55;;
21979;SDS011;11154;48.558;9.234;2023-09-12T00:20:23;11.52;;;5.88;;
21979;SDS011;11154;48.558;9.234;2023-09-12T00:22:25;12.05;;;6.15;;
21979;SDS011;11154;48.558;9.234;2023-09-12T00:24:27;9.93;;;6.45;;
21979;SDS011;11154;48.558;9.234;2023-09-12T00:26:27;11.23;;;6.15;;
21979;SDS011;11154;48.558;9.234;2023-09-12T00:28:30;12.88;;;6.07;;
21979;SDS011;11154;48.558;9.234;2023-09-12T00:30:33;10.43;;;6.15;;
21979;SDS011;11154;48.558;9.234;2023-09-12T00:32:35;11.63;;;6.18;;
21979;SDS011;11154;48.558;9.234;2023-09-12T00:34:35;12.27;;;5.90;;
21979;SDS011;11154;48.558;9.234;2023-09-12T00:36:38;10.13;;;5.75;;
21979;SDS011;11154;48.558;9.234;2023-09-12T00:38:39;11.15;;;5.72;;
21979;SDS011;11154;48.558;9.234;2023-09-12T00:40:41;15.90;;;5.57;;
21979;SDS011;11154;48.558;9.234;2023-09-12T00:42:43;9.30;;;5.88;;
21979;SDS011;11154;48.558;9.234;2023-09-12T00:44:44;11.98;;;6.15;;
21979;SDS011;11154;48.558;9.234;2023-09-12T00:46:45;13.18;;;5.93;;
21979;SDS011;11154;48.558;9.234;2023-09-12T00:48:49;8.93;;;5.70;;
21979;SDS011;11154;48.558;9.234;2023-09-12T00:50:51;14.55;;;5.88;;
21979;SDS011;11154;48.558;9.234;2023-09-12T00:52:54;10.45;;;6.22;;
21979;SDS011;11154;48.558;9.234;2023-09-12T00:54:57;14.80;;;6.28;;
21979;SDS011;11154;48.558;9.234;2023-09-12T00:56:59;10.73;;;5.63;;
21979;SDS011;11154;48.558;9.234;2023-09-12T00:59:02;11.40;;;5.70;;
21979;SDS011;11154;48.558;9.234;2023-09-12T01:01:05;12.63;;;6.30;;
21979;SDS011;11154;48.558;9.234;2023-09-12T01:03:08;16.58;;;6.78;;
21979;SDS011;11154;48.558;9.234;2023-09-12T01:05:10;11.52;;;5.97;;
21979;SDS011;11154;48.558;9.234;2023-09-12T01:07:13;17.02;;;6.05;;
21979;SDS011;11154;48.558;9.234;2023-09-12T01:09:17;13.15;;;6.43;;
21979;SDS011;11154;48.558;9.234;2023-09-12T01:11:20;11.38;;;6.25;;
21979;SDS011;11154;48.558;9.234;2023-09-12T01:13:23;15.07;;;6.53;;
21979;SDS011;11154;48.558;9.234;2023-09-12T01:15:25;7.55;;;5.32;;
21979;SDS011;11154;48.558;9.234;2023-09-12T01:17:27;12.90;;;5.85;;
21979;SDS011;11154;48.558;9.234;2023-09-12T01:19:30;13.55;;;5.25;;
21979;SDS011;11154;48.558;9.234;2023-09-12T01:21:52;10.75;;;6.00;;
21979;SDS011;11154;48.558;9.234;2023-09-12T01:24:09;12.73;;;5.85;;
21979;SDS011;11154;48.558;9.234;2023-09-12T01:26:40;13.18;;;6.20;;
21979;SDS011;11154;48.558;9.234;2023-09-12T01:28:47;9.40;;;5.85;;
21979;SDS011;11154;48.558;9.234;2023-09-12T01:30:50;13.57;;;6.32;;
21979;SDS011;11154;48.558;9.234;2023-09-12T01:32:52;11.60;;;5.85;;
21979;SDS011;11154;48.558;9.234;2023-09-12T01:34:55;10.57;;;6.15;;
21979;SDS011;11154;48.558;9.234;2023-09-12T01:36:56;13.07;;;6.40;;
21979;SDS011;11154;48.558;9.234;2023-09-12T01:38:58;14.65;;;6.30;;
21979;SDS011;11154;48.558;9.234;2023-09-12T01:41:00;11.15;;;6.53;;
21979;SDS011;11154;48.558;9.234;2023-09-12T01:43:02;13.65;;;6.20;;
21979;SDS011;11154;48.558;9.234;2023-09-12T01:45:08;15.77;;;6.38;;
21979;SDS011;11154;48.558;9.234;2023-09-12T01:47:12;13.30;;;5.78;;
21979;SDS011;11154;48.558;9.234;2023-09-12T01:49:16;15.35;;;6.47;;
21979;SDS011;11154;48.558;9.234;2023-09-12T01:51:20;14.82;;;5.88;;
21979;SDS011;11154;48.558;9.234;2023-09-12T01:53:23;14.45;;;6.03;;
21979;SDS011;11154;48.558;9.234;2023-09-12T01:55:25;18.50;;;6.22;;
21979;SDS011;11154;48.558;9.234;2023-09-12T01:57:27;9.77;;;6.38;;
21979;SDS011;11154;48.558;9.234;2023-09-12T01:59:29;9.30;;;6.13;;
21979;SDS011;11154;48.558;9.234;2023-09-12T02:01:31;9.90;;;6.03;;
21979;SDS011;11154;48.558;9.234;2023-09-12T02:03:33;14.70;;;6.60;;
21979;SDS011;11154;48.558;9.234;2023-09-12T02:05:34;12.32;;;6.22;;
21979;SDS011;11154;48.558;9.234;2023-09-12T02:07:38;10.23;;;5.90;;
21979;SDS011;11154;48.558;9.234;2023-09-12T02:09:40;12.35;;;6.25;;
21979;SDS011;11154;48.558;9.234;2023-09-12T02:11:42;14.30;;;6.80;;
21979;SDS011;11154;48.558;9.234;2023-09-12T02:13:43;10.07;;;6.00;;
21979;SDS011;11154;48.558;9.234;2023-09-12T02:15:45;11.15;;;6.55;;
21979;SDS011;11154;48.558;9.234;2023-09-12T02:17:48;11.13;;;5.82;;
21979;SDS011;11154;48.558;9.234;2023-09-12T02:19:50;12.20;;;6.13;;
21979;SDS011;11154;48.558;9.234;2023-09-12T02:21:52;14.20;;;5.90;;
21979;SDS011;11154;48.558;9.234;2023-09-12T02:23:53;9.50;;;5.93;;
21979;SDS011;11154;48.558;9.234;2023-09-12T02:25:55;9.32;;;6.30;;
21979;SDS011;11154;48.558;9.234;2023-09-12T02:27:57;13.18;;;6.78;;
21979;SDS011;11154;48.558;9.234;2023-09-12T02:29:58;16.35;;;6.50;;
21979;SDS011;11154;48.558;9.234;2023-09-12T02:31:59;13.20;;;6.68;;
21979;SDS011;11154;48.558;9.234;2023-09-12T02:34:02;13.35;;;6.53;;
21979;SDS011;11154;48.558;9.234;2023-09-12T02:36:04;13.43;;;6.57;;
21979;SDS011;11154;48.558;9.234;2023-09-12T02:38:06;11.45;;;6.13;;
21979;SDS011;11154;48.558;9.234;2023-09-12T02:40:08;10.98;;;6.63;;
21979;SDS011;11154;48.558;9.234;2023-09-12T02:42:11;10.60;;;6.63;;
21979;SDS011;11154;48.558;9.234;2023-09-12T02:44:12;12.80;;;6.65;;
21979;SDS011;11154;48.558;9.234;2023-09-12T02:46:14;11.82;;;6.45;;
21979;SDS011;11154;48.558;9.234;2023-09-12T02:48:15;12.68;;;6.03;;
21979;SDS011;11154;48.558;9.234;2023-09-12T02:50:18;10.02;;;6.38;;
21979;SDS011;11154;48.558;9.234;2023-09-12T02:52:20;16.17;;;6.47;;
21979;SDS011;11154;48.558;9.234;2023-09-12T02:54:21;10.75;;;6.65;;
21979;SDS011;11154;48.558;9.234;2023-09-12T02:56:22;13.50;;;6.40;;
21979;SDS011;11154;48.558;9.234;2023-09-12T02:58:24;12.05;;;6.38;;
21979;SDS011;11154;48.558;9.234;2023-09-12T03:00:25;9.90;;;6.60;;
21979;SDS011;11154;48.558;9.234;2023-09-12T03:02:27;8.55;;;6.07;;
21979;SDS011;11154;48.558;9.234;2023-09-12T03:04:29;7.82;;;6.35;;
21979;SDS011;11154;48.558;9.234;2023-09-12T03:06:31;13.15;;;6.72;;
21979;SDS011;11154;48.558;9.234;2023-09-12T03:08:33;12.57;;;6.25;;
21979;SDS011;11154;48.558;9.234;2023-09-12T03:10:33;9.70;;;6.20;;
21979;SDS011;11154;48.558;9.234;2023-09-12T03:12:35;11.50;;;6.22;;
21979;SDS011;11154;48.558;9.234;2023-09-12T03:14:37;13.82;;;6.72;;
21979;SDS011;11154;48.558;9.234;2023-09-12T03:16:38;11.25;;;5.82;;
21979;SDS011;11154;48.558;9.234;2023-09-12T03:18:40;14.40;;;6.60;;
21979;SDS011;11154;48.558;9.234;2023-09-12T03:20:42;11.50;;;6.18;;
21979;SDS011;11154;48.558;9.234;2023-09-12T03:22:46;8.93;;;6.45;;
21979;SDS011;11154;48.558;9.234;2023-09-12T03:24:47;10.98;;;6.47;;
21979;SDS011;11154;48.558;9.234;2023-09-12T03:26:48;11.80;;;6.80;;
21979;SDS011;11154;48.558;9.234;2023-09-12T03:28:50;14.18;;;6.65;;
21979;SDS011;11154;48.558;9.234;2023-09-12T03:30:52;10.93;;;6.63;;
21979;SDS011;11154;48.558;9.234;2023-09-12T03:32:53;8.77;;;5.88;;
21979;SDS011;11154;48.558;9.234;2023-09-12T03:34:55;11.25;;;6.15;;
21979;SDS011;11154;48.558;9.234;2023-09-12T03:36:56;10.48;;;6.15;;
21979;SDS011;11154;48.558;9.234;2023-09-12T03:38:59;12.57;;;6.60;;
21979;SDS011;11154;48.558;9.234;2023-09-12T03:41:01;15.48;;;6.20;;
21979;SDS011;11154;48.558;9.234;2023-09-12T03:43:03;15.07;;;6.47;;
21979;SDS011;11154;48.558;9.234;2023-09-12T03:45:05;10.27;;;6.03;;
21979;SDS011;11154;48.558;9.234;2023-09-12T03:47:06;12.50;;;6.30;;
21979;SDS011;11154;48.558;9.234;2023-09-12T03:49:08;12.95;;;5.82;;
21979;SDS011;11154;48.558;9.234;2023-09-12T03:51:09;13.48;;;6.50;;
21979;SDS011;11154;48.558;9.234;2023-09-12T03:53:11;11.75;;;6.25;;
21979;SDS011;11154;48.558;9.234;2023-09-12T03:55:16;10.30;;;6.07;;
21979;SDS011;11154;48.558;9.234;2023-09-12T03:57:17;12.98;;;5.80;;
21979;SDS011;11154;48.558;9.234;2023-09-12T03:59:18;12.60;;;6.30;;
21979;SDS011;11154;48.558;9.234;2023-09-12T04:01:19;10.63;;;6.45;;
21979;SDS011;11154;48.558;9.234;2023-09-12T04:03:20;12.05;;;5.93;;
21979;SDS011;11154;48.558;9.234;2023-09-12T04:05:22;8.00;;;5.75;;
21979;SDS011;11154;48.558;9.234;2023-09-12T04:07:23;11.27;;;6.38;;
21979;SDS011;11154;48.558;9.234;2023-09-12T04:09:25;10.90;;;6.20;;
21979;SDS011;11154;48.558;9.234;2023-09-12T04:11:29;9.90;;;5.95;;
21979;SDS011;11154;48.558;9.234;2023-09-12T04:13:30;11.48;;;5.90;;
21979;SDS011;11154;48.558;9.234;2023-09-12T04:15:32;10.30;;;6.60;;
21979;SDS011;11154;48.558;9.234;2023-09-12T04:17:33;14.40;;;6.40;;
21979;SDS011;11154;48.558;9.234;2023-09-12T04:19:34;16.42;;;6.68;;
21979;SDS011;11154;48.558;9.234;2023-09-12T04:21:36;12.52;;;6.35;;
21979;SDS011;11154;48.558;9.234;2023-09-12T04:23:38;12.77;;;6.28;;
21979;SDS011;11154;48.558;9.234;2023-09-12T04:25:41;12.52;;;7.13;;
21979;SDS011;11154;48.558;9.234;2023-09-12T04:27:44;8.98;;;6.43;;
21979;SDS011;11154;48.558;9.234;2023-09-12T04:29:46;8.98;;;5.93;;
21979;SDS011;11154;48.558;9.234;2023-09-12T04:31:47;14.73;;;6.97;;
21979;SDS011;11154;48.558;9.234;2023-09-12T04:33:50;13.18;;;6.53;;
21979;SDS011;11154;48.558;9.234;2023-09-12T04:35:51;12.63;;;6.47;;
21979;SDS011;11154;48.558;9.234;2023-09-12T04:37:53;11.73;;;7.00;;
21979;SDS011;11154;48.558;9.234;2023-09-12T04:39:54;9.25;;;6.22;;
21979;SDS011;11154;48.558;9.234;2023-09-12T04:41:56;8.95;;;6.20;;
21979;SDS011;11154;48.558;9.234;2023-09-12T04:43:59;13.32;;;5.93;;
21979;SDS011;11154;48.558;9.234;2023-09-12T04:46:02;11.13;;;6.78;;
21979;SDS011;11154;48.558;9.234;2023-09-12T04:48:04;12.90;;;6.82;;
21979;SDS011;11154;48.558;9.234;2023-09-12T04:50:07;15.48;;;6.60;;
21979;SDS011;11154;48.558;9.234;2023-09-12T04:52:09;9.93;;;6.35;;
21979;SDS011;11154;48.558;9.234;2023-09-12T04:54:10;11.07;;;6.63;;
21979;SDS011;11154;48.558;9.234;2023-09-12T04:56:12;12.15;;;6.85;;
21979;SDS011;11154;48.558;9.234;2023-09-12T04:58:14;10.77;;;6.45;;
21979;SDS011;11154;48.558;9.234;2023-09-12T05:00:17;13.63;;;6.78;;
21979;SDS011;11154;48.558;9.234;2023-09-12T05:02:18;12.73;;;6.95;;
21979;SDS011;11154;48.558;9.234;2023-09-12T05:04:20;7.78;;;6.18;;
21979;SDS011;11154;48.558;9.234;2023-09-12T05:06:21;12.57;;;6.38;;
21979;SDS011;11154;48.558;9.234;2023-09-12T05:08:23;9.07;;;6.40;;
21979;SDS011;11154;48.558;9.234;2023-09-12T05:10:25;10.45;;;6.88;;
21979;SDS011;11154;48.558;9.234;2023-09-12T05:12:26;11.65;;;6.53;;
21979;SDS011;11154;48.558;9.234;2023-09-12T05:14:28;13.93;;;6.70;;
21979;SDS011;11154;48.558;9.234;2023-09-12T05:16:31;14.77;;;6.85;;
21979;SDS011;11154;48.558;9.234;2023-09-12T05:18:32;10.50;;;6.75;;
21979;SDS011;11154;48.558;9.234;2023-09-12T05:20:34;12.88;;;6.70;;
21979;SDS011;11154;48.558;9.234;2023-09-12T05:22:36;11.75;;;6.90;;
21979;SDS011;11154;48.558;9.234;2023-09-12T05:24:37;11.40;;;7.03;;
21979;SDS011;11154;48.558;9.234;2023-09-12T05:26:39;12.93;;;6.97;;
21979;SDS011;11154;48.558;9.234;2023-09-12T05:28:40;12.35;;;6.80;;
21979;SDS011;11154;48.558;9.234;2023-09-12T05:30:42;15.20;;;6.93;;
21979;SDS011;11154;48.558;9.234;2023-09-12T05:32:45;13.15;;;6.85;;
21979;SDS011;11154;48.558;9.234;2023-09-12T05:34:47;12.32;;;6.65;;
21979;SDS011;11154;48.558;9.234;2023-09-12T05:36:49;9.27;;;6.65;;
21979;SDS011;11154;48.558;9.234;2023-09-12T05:38:51;11.98;;;6.65;;
21979;SDS011;11154;48.558;9.234;2023-09-12T05:40:53;17.08;;;7.47;;
21979;SDS011;11154;48.558;9.234;2023-09-12T05:42:54;13.93;;;7.25;;
21979;SDS011;11154;48.558;9.234;2023-09-12T05:44:56;13.85;;;6.85;;
21979;SDS011;11154;48.558;9.234;2023-09-12T05:46:57;12.75;;;7.13;;
21979;SDS011;11154;48.558;9.234;2023-09-12T05:48:59;14.73;;;7.18;;
21979;SDS011;11154;48.558;9.234;2023-09-12T05:51:01;13.93;;;6.75;;
21979;SDS011;11154;48.558;9.234;2023-09-12T05:53:03;11.77;;;6.88;;
21979;SDS011;11154;48.558;9.234;2023-09-12T05:55:05;11.98;;;6.90;;
21979;SDS011;11154;48.558;9.234;2023-09-12T05:57:08;9.90;;;7.00;;
21979;SDS011;11154;48.558;9.234;2023-09-12T05:59:10;14.35;;;7.22;;
21979;SDS011;11154;48.558;9.234;2023-09-12T06:01:12;10.70;;;6.70;;
21979;SDS011;11154;48.558;9.234;2023-09-12T06:03:14;12.02;;;7.30;;
21979;SDS011;11154;48.558;9.234;2023-09-12T06:05:18;13.10;;;6.80;;
21979;SDS011;11154;48.558;9.234;2023-09-12T06:07:19;13.07;;;7.03;;
21979;SDS011;11154;48.558;9.234;2023-09-12T06:09:21;14.90;;;7.15;;
21979;SDS011;11154;48.558;9.234;2023-09-12T06:11:23;15.25;;;7.72;;
21979;SDS011;11154;48.558;9.234;2023-09-12T06:13:24;12.73;;;7.32;;
21979;SDS011;11154;48.558;9.234;2023-09-12T06:15:26;11.13;;;7.25;;
21979;SDS011;11154;48.558;9.234;2023-09-12T06:17:27;12.02;;;6.93;;
21979;SDS011;11154;48.558;9.234;2023-09-12T06:19:29;12.10;;;7.07;;
21979;SDS011;11154;48.558;9.234;2023-09-12T06:21:32;11.05;;;7.07;;
21979;SDS011;11154;48.558;9.234;2023-09-12T06:23:34;12.40;;;7.45;;
21979;SDS011;11154;48.558;9.234;2023-09-12T06:25:36;11.95;;;6.72;;
21979;SDS011;11154;48.558;9.234;2023-09-12T06:27:37;16.65;;;7.20;;
21979;SDS011;11154;48.558;9.234;2023-09-12T06:29:39;15.35;;;7.60;;
21979;SDS011;11154;48.558;9.234;2023-09-12T06:31:40;15.10;;;7.50;;
21979;SDS011;11154;48.558;9.234;2023-09-12T06:33:42;13.38;;;7.18;;
21979;SDS011;11154;48.558;9.234;2023-09-12T06:35:44;11.82;;;7.20;;
21979;SDS011;11154;48.558;9.234;2023-09-12T06:37:50;14.63;;;8.63;;
21979;SDS011;11154;48.558;9.234;2023-09-12T06:39:52;16.58;;;10.77;;
21979;SDS011;11154;48.558;9.234;2023-09-12T06:41:52;20.95;;;12.20;;
21979;SDS011;11154;48.558;9.234;2023-09-12T06:43:54;17.85;;;8.65;;
21979;SDS011;11154;48.558;9.234;2023-09-12T06:45:58;16.35;;;7.97;;
21979;SDS011;11154;48.558;9.234;2023-09-12T06:47:59;9.90;;;7.07;;
21979;SDS011;11154;48.558;9.234;2023-09-12T06:50:01;9.95;;;6.93;;
21979;SDS011;11154;48.558;9.234;2023-09-12T06:52:03;11.82;;;7.65;;
21979;SDS011;11154;48.558;9.234;2023-09-12T06:54:07;13.85;;;7.93;;
21979;SDS011;11154;48.558;9.234;2023-09-12T06:56:08;12.00;;;7.35;;
21979;SDS011;11154;48.558;9.234;2023-09-12T06:58:10;12.82;;;7.55;;
21979;SDS011;11154;48.558;9.234;2023-09-12T07:00:12;13.85;;;7.75;;
21979;SDS011;11154;48.558;9.234;2023-09-12T07:02:15;11.50;;;7.38;;
21979;SDS011;11154;48.558;9.234;2023-09-12T07:04:18;10.35;;;6.93;;
21979;SDS011;11154;48.558;9.234;2023-09-12T07:06:19;12.35;;;7.20;;
21979;SDS011;11154;48.558;9.234;2023-09-12T07:08:21;12.88;;;7.55;;
21979;SDS011;11154;48.558;9.234;2023-09-12T07:10:24;15.52;;;7.22;;
21979;SDS011;11154;48.558;9.234;2023-09-12T07:12:26;15.80;;;7.53;;
21979;SDS011;11154;48.558;9.234;2023-09-12T07:14:29;14.20;;;7.85;;
21979;SDS011;11154;48.558;9.234;2023-09-12T07:16:31;16.35;;;8.07;;
21979;SDS011;11154;48.558;9.234;2023-09-12T07:18:33;17.13;;;8.40;;
21979;SDS011;11154;48.558;9.234;2023-09-12T07:20:35;13.65;;;6.95;;
21979;SDS011;11154;48.558;9.234;2023-09-12T07:22:36;17.67;;;7.63;;
21979;SDS011;11154;48.558;9.234;2023-09-12T07:24:39;12.55;;;6.43;;
21979;SDS011;11154;48.558;9.234;2023-09-12T07:26:42;13.43;;;7.45;;
21979;SDS011;11154;48.558;9.234;2023-09-12T07:28:43;10.85;;;7.13;;
21979;SDS011;11154;48.558;9.234;2023-09-12T07:30:45;15.88;;;8.07;;
21979;SDS011;11154;48.558;9.234;2023-09-12T07:32:47;13.32;;;7.13;;
21979;SDS011;11154;48.558;9.234;2023-09-12T07:34:50;13.98;;;6.95;;
21979;SDS011;11154;48.558;9.234;2023-09-12T07:36:51;9.88;;;7.15;;
21979;SDS011;11154;48.558;9.234;2023-09-12T07:38:54;13.95;;;7.88;;
21979;SDS011;11154;48.558;9.234;2023-09-12T07:40:56;13.73;;;8.32;;
21979;SDS011;11154;48.558;9.234;2023-09-12T07:42:59;13.65;;;8.13;;
21979;SDS011;11154;48.558;9.234;2023-09-12T07:45:01;11.70;;;7.50;;
21979;SDS011;11154;48.558;9.234;2023-09-12T07:47:03;16.02;;;8.05;;
21979;SDS011;11154;48.558;9.234;2023-09-12T07:49:05;10.23;;;7.30;;
21979;SDS011;11154;48.558;9.234;2023-09-12T07:51:12;12.45;;;7.93;;
21979;SDS011;11154;48.558;9.234;2023-09-12T07:53:15;13.60;;;7.90;;
21979;SDS011;11154;48.558;9.234;2023-09-12T07:55:16;15.02;;;7.53;;
21979;SDS011;11154;48.558;9.234;2023-09-12T07:57:18;14.68;;;7.50;;
21979;SDS011;11154;48.558;9.234;2023-09-12T07:59:20;10.95;;;7.18;;
21979;SDS011;11154;48.558;9.234;2023-09-12T08:01:22;13.65;;;7.55;;
21979;SDS011;11154;48.558;9.234;2023-09-12T08:03:24;11.15;;;7.85;;
21979;SDS011;11154;48.558;9.234;2023-09-12T08:05:25;12.07;;;7.38;;
21979;SDS011;11154;48.558;9.234;2023-09-12T08:07:27;10.88;;;7.68;;
21979;SDS011;11154;48.558;9.234;2023-09-12T08:11:49;12.07;;;7.45;;
21979;SDS011;11154;48.558;9.234;2023-09-12T08:13:50;12.20;;;7.00;;
21979;SDS011;11154;48.558;9.234;2023-09-12T08:15:53;11.00;;;7.40;;
21979;SDS011;11154;48.558;9.234;2023-09-12T08:17:55;11.82;;;7.63;;
21979;SDS011;11154;48.558;9.234;2023-09-12T08:19:57;11.90;;;7.15;;
21979;SDS011;11154;48.558;9.234;2023-09-12T08:21:57;15.93;;;8.00;;
21979;SDS011;11154;48.558;9.234;2023-09-12T08:23:59;11.25;;;7.18;;
21979;SDS011;11154;48.558;9.234;2023-09-12T08:26:01;13.07;;;7.05;;
21979;SDS011;11154;48.558;9.234;2023-09-12T08:28:02;10.93;;;7.93;;
21979;SDS011;11154;48.558;9.234;2023-09-12T08:30:05;11.13;;;7.72;;
21979;SDS011;11154;48.558;9.234;2023-09-12T08:32:09;11.07;;;7.10;;
21979;SDS011;11154;48.558;9.234;2023-09-12T08:34:10;13.98;;;7.55;;
21979;SDS011;11154;48.558;9.234;2023-09-12T08:36:12;13.25;;;7.30;;
21979;SDS011;11154;48.558;9.234;2023-09-12T08:38:13;13.00;;;7.72;;
21979;SDS011;11154;48.558;9.234;2023-09-12T08:40:15;11.27;;;7.13;;
21979;SDS011;11154;48.558;9.234;2023-09-12T08:42:17;13.98;;;7.85;;
21979;SDS011;11154;48.558;9.234;2023-09-12T08:44:19;17.25;;;7.55;;
21979;SDS011;11154;48.558;9.234;2023-09-12T08:46:21;11.38;;;7.53;;
21979;SDS011;11154;48.558;9.234;2023-09-12T08:48:25;13.02;;;7.95;;
21979;SDS011;11154;48.558;9.234;2023-09-12T08:50:29;12.00;;;8.05;;
21979;SDS011;11154;48.558;9.234;2023-09-12T08:52:33;12.05;;;7.55;;
21979;SDS011;11154;48.558;9.234;2023-09-12T08:54:34;12.73;;;7.85;;
21979;SDS011;11154;48.558;9.234;2023-09-12T08:56:36;11.73;;;7.65;;
21979;SDS011;11154;48.558;9.234;2023-09-12T08:58:40;15.55;;;8.38;;
21979;SDS011;11154;48.558;9.234;2023-09-12T09:00:42;14.50;;;8.75;;
21979;SDS011;11154;48.558;9.234;2023-09-12T09:02:44;14.43;;;8.68;;
21979;SDS011;11154;48.558;9.234;2023-09-12T09:04:47;10.82;;;8.55;;
21979;SDS011;11154;48.558;9.234;2023-09-12T09:06:51;12.10;;;7.47;;
21979;SDS011;11154;48.558;9.234;2023-09-12T09:08:54;10.35;;;7.13;;
21979;SDS011;11154;48.558;9.234;2023-09-12T09:10:56;11.82;;;7.60;;
21979;SDS011;11154;48.558;9.234;2023-09-12T09:12:58;11.63;;;7.00;;
21979;SDS011;11154;48.558;9.234;2023-09-12T09:15:00;12.88;;;7.55;;
21979;SDS011;11154;48.558;9.234;2023-09-12T09:17:21;9.63;;;7.22;;
21979;SDS011;11154;48.558;9.234;2023-09-12T09:19:23;11.75;;;7.75;;
21979;SDS011;11154;48.558;9.234;2023-09-12T09:21:46;11.18;;;7.13;;
21979;SDS011;11154;48.558;9.234;2023-09-12T09:23:48;12.23;;;7.35;;
21979;SDS011;11154;48.558;9.234;2023-09-12T09:25:51;11.55;;;6.57;;
21979;SDS011;11154;48.558;9.234;2023-09-12T09:27:53;13.27;;;6.55;;
21979;SDS011;11154;48.558;9.234;2023-09-12T09:29:54;14.80;;;8.60;;
21979;SDS011;11154;48.558;9.234;2023-09-12T09:31:57;17.10;;;8.80;;
21979;SDS011;11154;48.558;9.234;2023-09-12T09:34:01;15.77;;;6.95;;
21979;SDS011;11154;48.558;9.234;2023-09-12T09:36:04;10.10;;;7.00;;
21979;SDS011;11154;48.558;9.234;2023-09-12T09:38:10;14.77;;;7.80;;
21979;SDS011;11154;48.558;9.234;2023-09-12T09:40:16;15.00;;;8.45;;
21979;SDS011;11154;48.558;9.234;2023-09-12T09:42:17;14.38;;;6.55;;
21979;SDS011;11154;48.558;9.234;2023-09-12T09:44:20;10.80;;;7.40;;
21979;SDS011;11154;48.558;9.234;2023-09-12T09:46:23;12.38;;;8.15;;
21979;SDS011;11154;48.558;9.234;2023-09-12T09:48:24;16.15;;;8.55;;
21979;SDS011;11154;48.558;9.234;2023-09-12T09:50:27;13.52;;;8.90;;
21979;SDS011;11154;48.558;9.234;2023-09-12T09:52:29;16.05;;;9.82;;
21979;SDS011;11154;48.558;9.234;2023-09-12T09:54:32;11.52;;;8.40;;
21979;SDS011;11154;48.558;9.234;2023-09-12T09:56:34;11.68;;;7.50;;
21979;SDS011;11154;48.558;9.234;2023-09-12T09:58:46;12.25;;;8.48;;
21979;SDS011;11154;48.558;9.234;2023-09-12T10:00:49;13.65;;;8.32;;
21979;SDS011;11154;48.558;9.234;2023-09-12T10:02:51;15.40;;;7.43;;
21979;SDS011;11154;48.558;9.234;2023-09-12T10:04:53;12.65;;;10.73;;
21979;SDS011;11154;48.558;9.234;2023-09-12T10:06:55;13.95;;;7.63;;
21979;SDS011;11154;48.558;9.234;2023-09-12T10:08:58;15.35;;;7.72;;
21979;SDS011;11154;48.558;9.234;2023-09-12T10:11:03;13.93;;;6.95;;
21979;SDS011;11154;48.558;9.234;2023-09-12T10:13:05;9.43;;;6.05;;
21979;SDS011;11154;48.558;9.234;2023-09-12T10:15:08;12.63;;;6.55;;
21979;SDS011;11154;48.558;9.234;2023-09-12T10:17:15;12.70;;;6.28;;
21979;SDS011;11154;48.558;9.234;2023-09-12T10:19:25;13.13;;;6.07;;
21979;SDS011;11154;48.558;9.234;2023-09-12T10:21:32;8.85;;;5.63;;
21979;SDS011;11154;48.558;9.234;2023-09-12T10:23:37;12.00;;;6.07;;
21979;SDS011;11154;48.558;9.234;2023-09-12T10:25:42;11.13;;;6.18;;
21979;SDS011;11154;48.558;9.234;2023-09-12T10:27:47;12.25;;;5.93;;
21979;SDS011;11154;48.558;9.234;2023-09-12T10:29:51;7.13;;;5.68;;
21979;SDS011;11154;48.558;9.234;2023-09-12T10:31:53;9.40;;;5.72;;
21979;SDS011;11154;48.558;9.234;2023-09-12T10:33:55;9.63;;;5.68;;
21979;SDS011;11154;48.558;9.234;2023-09-12T10:35:57;12.50;;;5.82;;
21979;SDS011;11154;48.558;9.234;2023-09-12T10:38:00;9.40;;;5.55;;
21979;SDS011;11154;48.558;9.234;2023-09-12T10:40:04;8.10;;;5.35;;
21979;SDS011;11154;48.558;9.234;2023-09-12T10:42:09;8.48;;;5.57;;
21979;SDS011;11154;48.558;9.234;2023-09-12T10:44:16;11.95;;;6.05;;
21979;SDS011;11154;48.558;9.234;2023-09-12T10:46:18;12.95;;;4.93;;
21979;SDS011;11154;48.558;9.234;2023-09-12T10:48:19;7.78;;;5.18;;
21979;SDS011;11154;48.558;9.234;2023-09-12T10:50:20;8.25;;;5.63;;
21979;SDS011;11154;48.558;9.234;2023-09-12T10:52:25;7.38;;;5.40;;
21979;SDS011;11154;48.558;9.234;2023-09-12T10:54:35;11.73;;;5.35;;
21979;SDS011;11154;48.558;9.234;2023-09-12T10:56:37;9.20;;;5.55;;
21979;SDS011;11154;48.558;9.234;2023-09-12T11:01:22;7.05;;;5.07;;
21979;SDS011;11154;48.558;9.234;2023-09-12T11:03:38;10.00;;;5.38;;
21979;SDS011;11154;48.558;9.234;2023-09-12T11:05:50;8.77;;;5.35;;
21979;SDS011;11154;48.558;9.234;2023-09-12T11:07:55;8.35;;;5.40;;
21979;SDS011;11154;48.558;9.234;2023-09-12T11:10:17;8.80;;;5.07;;
21979;SDS011;11154;48.558;9.234;2023-09-12T11:12:33;8.77;;;4.70;;
21979;SDS011;11154;48.558;9.234;2023-09-12T11:14:36;7.00;;;4.63;;
21979;SDS011;11154;48.558;9.234;2023-09-12T11:19:42;7.03;;;4.13;;
21979;SDS011;11154;48.558;9.234;2023-09-12T11:21:46;11.70;;;4.97;;
21979;SDS011;11154;48.558;9.234;2023-09-12T11:23:53;8.90;;;4.35;;
21979;SDS011;11154;48.558;9.234;2023-09-12T11:28:15;5.40;;;4.47;;
21979;SDS011;11154;48.558;9.234;2023-09-12T11:30:20;8.73;;;4.47;;
21979;SDS011;11154;48.558;9.234;2023-09-12T11:32:25;10.73;;;4.35;;
21979;SDS011;11154;48.558;9.234;2023-09-12T11:34:35;7.47;;;4.55;;
21979;SDS011;11154;48.558;9.234;2023-09-12T11:36:39;5.25;;;4.00;;
21979;SDS011;11154;48.558;9.234;2023-09-12T11:38:42;6.40;;;3.92;;
21979;SDS011;11154;48.558;9.234;2023-09-12T11:40:44;7.88;;;4.53;;
21979;SDS011;11154;48.558;9.234;2023-09-12T11:42:45;5.90;;;4.32;;
21979;SDS011;11154;48.558;9.234;2023-09-12T11:44:49;6.28;;;4.35;;
21979;SDS011;11154;48.558;9.234;2023-09-12T11:46:52;5.28;;;4.38;;
21979;SDS011;11154;48.558;9.234;2023-09-12T11:48:54;5.72;;;4.10;;
21979;SDS011;11154;48.558;9.234;2023-09-12T11:50:59;7.53;;;4.03;;
21979;SDS011;11154;48.558;9.234;2023-09-12T11:53:02;6.25;;;4.00;;
21979;SDS011;11154;48.558;9.234;2023-09-12T11:55:03;6.78;;;4.00;;
21979;SDS011;11154;48.558;9.234;2023-09-12T11:57:06;6.85;;;4.57;;
21979;SDS011;11154;48.558;9.234;2023-09-12T11:59:09;6.72;;;4.22;;
21979;SDS011;11154;48.558;9.234;2023-09-12T12:01:11;7.00;;;4.07;;
21979;SDS011;11154;48.558;9.234;2023-09-12T12:03:13;6.45;;;3.78;;
21979;SDS011;11154;48.558;9.234;2023-09-12T12:05:14;6.13;;;4.13;;
21979;SDS011;11154;48.558;9.234;2023-09-12T12:07:18;7.50;;;4.28;;
21979;SDS011;11154;48.558;9.234;2023-09-12T12:09:19;5.55;;;3.83;;
21979;SDS011;11154;48.558;9.234;2023-09-12T12:11:21;4.63;;;3.97;;
21979;SDS011;11154;48.558;9.234;2023-09-12T12:13:22;7.30;;;4.22;;
21979;SDS011;11154;48.558;9.234;2023-09-12T12:15:25;4.88;;;4.05;;
21979;SDS011;11154;48.558;9.234;2023-09-12T12:17:28;13.32;;;4.78;;
21979;SDS011;11154;48.558;9.234;2023-09-12T12:19:30;7.38;;;4.63;;
21979;SDS011;11154;48.558;9.234;2023-09-12T12:21:32;11.13;;;4.22;;